sensor_id;sensor_type;location;lat;lon;timestamp;pressure;altitude;pressure_sealevel;temperature;humidity
4586;BME280;2305;50.118;8.952;2022-11-25T00:00:29;100503.34;;;4.72;100.00
4586;BME280;2305;50.118;8.952;2022-11-25T00:03:00;100491.53;;;4.65;100.00
4586;BME280;2305;50.118;8.952;2022-11-25T00:05:28;100495.28;;;4.61;100.00
4586;BME280;2305;50.118;8.952;2022-11-25T00:08:01;100492.72;;;4.59;100.00
4586;BME280;2305;50.118;8.952;2022-11-25T00:10:30;100486.84;;;4.56;100.00
4586;BME280;2305;50.118;8.952;2022-11-25T00:13:01;100486.16;;;4.52;100.00
4586;BME280;2305;50.118;8.952;2022-11-25T00:15:34;100488.09;;;4.49;100.00
4586;BME280;2305;50.118;8.952;2022-11-25T00:18:03;100497.59;;;4.50;100.00
4586;BME280;2305;50.118;8.952;2022-11-25T00:20:36;100490.81;;;4.47;100.00
4586;BME280;2305;50.118;8.952;2022-11-25T00:23:07;100500.38;;;4.47;100.00
4586;BME280;2305;50.118;8.952;2022-11-25T00:25:37;100496.78;;;4.49;100.00
4586;BME280;2305;50.118;8.952;2022-11-25T00:28:06;100493.84;;;4.55;100.00
4586;BME280;2305;50.118;8.952;2022-11-25T00:30:37;100489.63;;;4.53;100.00
4586;BME280;2305;50.118;8.952;2022-11-25T00:33:05;100488.03;;;4.50;100.00
4586;BME280;2305;50.118;8.952;2022-11-25T00:35:37;100484.66;;;4.48;100.00
4586;BME280;2305;50.118;8.952;2022-11-25T00:38:09;100484.81;;;4.45;100.00
4586;BME280;2305;50.118;8.952;2022-11-25T00:40:39;100488.53;;;4.41;100.00
4586;BME280;2305;50.118;8.952;2022-11-25T00:43:09;100491.97;;;4.42;100.00
4586;BME280;2305;50.118;8.952;2022-11-25T00:45:56;100489.66;;;4.36;100.00
4586;BME280;2305;50.118;8.952;2022-11-25T00:48:25;100489.16;;;4.29;100.00
4586;BME280;2305;50.118;8.952;2022-11-25T00:50:54;100478.81;;;4.28;100.00
4586;BME280;2305;50.118;8.952;2022-11-25T00:53:24;100472.91;;;4.24;100.00
4586;BME280;2305;50.118;8.952;2022-11-25T00:55:52;100466.78;;;4.25;100.00
4586;BME280;2305;50.118;8.952;2022-11-25T00:58:39;100474.78;;;4.22;100.00
4586;BME280;2305;50.118;8.952;2022-11-25T01:01:08;100471.31;;;4.22;100.00
4586;BME280;2305;50.118;8.952;2022-11-25T01:03:40;100474.78;;;4.22;100.00
4586;BME280;2305;50.118;8.952;2022-11-25T01:06:10;100481.91;;;4.19;100.00
4586;BME280;2305;50.118;8.952;2022-11-25T01:08:42;100481.16;;;4.17;100.00
4586;BME280;2305;50.118;8.952;2022-11-25T01:11:13;100485.84;;;4.11;100.00
4586;BME280;2305;50.118;8.952;2022-11-25T01:13:46;100486.78;;;4.10;100.00
4586;BME280;2305;50.118;8.952;2022-11-25T01:16:17;100480.72;;;4.09;100.00
4586;BME280;2305;50.118;8.952;2022-11-25T01:18:50;100487.63;;;4.10;100.00
4586;BME280;2305;50.118;8.952;2022-11-25T01:21:20;100488.69;;;4.06;100.00
4586;BME280;2305;50.118;8.952;2022-11-25T01:23:54;100480.94;;;4.05;100.00
4586;BME280;2305;50.118;8.952;2022-11-25T01:26:29;100489.63;;;4.05;100.00
4586;BME280;2305;50.118;8.952;2022-11-25T01:29:00;100487.88;;;4.06;100.00
4586;BME280;2305;50.118;8.952;2022-11-25T01:31:34;100487.09;;;4.04;100.00
4586;BME280;2305;50.118;8.952;2022-11-25T01:34:07;100475.84;;;4.03;100.00
4586;BME280;2305;50.118;8.952;2022-11-25T01:36:35;100482.72;;;4.04;100.00
4586;BME280;2305;50.118;8.952;2022-11-25T01:39:05;100483.56;;;4.05;100.00
4586;BME280;2305;50.118;8.952;2022-11-25T01:41:36;100482.72;;;4.04;100.00
4586;BME280;2305;50.118;8.952;2022-11-25T01:44:12;100476.91;;;3.99;100.00
4586;BME280;2305;50.118;8.952;2022-11-25T01:46:50;100469.16;;;3.98;100.00
4586;BME280;2305;50.118;8.952;2022-11-25T01:49:24;100482.06;;;4.01;100.00
4586;BME280;2305;50.118;8.952;2022-11-25T01:52:03;100489.13;;;3.99;100.00
4586;BME280;2305;50.118;8.952;2022-11-25T01:54:37;100493.47;;;3.98;100.00
4586;BME280;2305;50.118;8.952;2022-11-25T01:57:12;100507.56;;;3.94;100.00
4586;BME280;2305;50.118;8.952;2022-11-25T01:59:44;100498.75;;;3.97;100.00
4586;BME280;2305;50.118;8.952;2022-11-25T02:02:14;100499.69;;;3.96;100.00
4586;BME280;2305;50.118;8.952;2022-11-25T02:04:49;100500.84;;;3.90;100.00
4586;BME280;2305;50.118;8.952;2022-11-25T02:07:22;100485.22;;;3.90;100.00
4586;BME280;2305;50.118;8.952;2022-11-25T02:09:58;100498.25;;;3.90;100.00
4586;BME280;2305;50.118;8.952;2022-11-25T02:12:37;100495.22;;;3.98;100.00
4586;BME280;2305;50.118;8.952;2022-11-25T02:15:09;100485.91;;;3.94;100.00
4586;BME280;2305;50.118;8.952;2022-11-25T02:17:38;100485.22;;;3.90;100.00
4586;BME280;2305;50.118;8.952;2022-11-25T02:20:10;100487.41;;;3.98;100.00
4586;BME280;2305;50.118;8.952;2022-11-25T02:22:52;100487.09;;;4.04;100.00
4586;BME280;2305;50.118;8.952;2022-11-25T02:25:28;100486.63;;;4.13;100.00
4586;BME280;2305;50.118;8.952;2022-11-25T02:28:00;100487.78;;;4.07;100.00
4586;BME280;2305;50.118;8.952;2022-11-25T02:30:30;100492.66;;;4.13;100.00
4586;BME280;2305;50.118;8.952;2022-11-25T02:33:04;100489.06;;;4.16;100.00
4586;BME280;2305;50.118;8.952;2022-11-25T02:35:35;100490.66;;;4.18;100.00
4586;BME280;2305;50.118;8.952;2022-11-25T02:38:09;100490.50;;;4.21;100.00
4586;BME280;2305;50.118;8.952;2022-11-25T02:40:52;100486.97;;;4.22;100.00
4586;BME280;2305;50.118;8.952;2022-11-25T02:43:26;100479.06;;;4.23;100.00
4586;BME280;2305;50.118;8.952;2022-11-25T02:46:00;100482.34;;;4.27;100.00
4586;BME280;2305;50.118;8.952;2022-11-25T02:48:31;100474.44;;;4.28;100.00
4586;BME280;2305;50.118;8.952;2022-11-25T02:51:25;100473.44;;;4.31;100.00
4586;BME280;2305;50.118;8.952;2022-11-25T02:53:55;100472.34;;;4.35;100.00
4586;BME280;2305;50.118;8.952;2022-11-25T02:56:34;100468.81;;;4.36;100.00
4586;BME280;2305;50.118;8.952;2022-11-25T02:59:05;100471.34;;;4.37;100.00
4586;BME280;2305;50.118;8.952;2022-11-25T03:01:35;100460.22;;;4.34;100.00
4586;BME280;2305;50.118;8.952;2022-11-25T03:04:05;100460.66;;;4.27;100.00
4586;BME280;2305;50.118;8.952;2022-11-25T03:06:37;100463.50;;;4.22;100.00
4586;BME280;2305;50.118;8.952;2022-11-25T03:09:08;100473.09;;;4.22;100.00
4586;BME280;2305;50.118;8.952;2022-11-25T03:11:39;100468.56;;;4.25;100.00
4586;BME280;2305;50.118;8.952;2022-11-25T03:14:26;100472.84;;;4.26;100.00
4586;BME280;2305;50.118;8.952;2022-11-25T03:16:54;100462.41;;;4.26;100.00
4586;BME280;2305;50.118;8.952;2022-11-25T03:19:26;100461.66;;;4.24;100.00
4586;BME280;2305;50.118;8.952;2022-11-25T03:21:55;100458.06;;;4.27;100.00
4586;BME280;2305;50.118;8.952;2022-11-25T03:24:26;100465.94;;;4.25;100.00
4586;BME280;2305;50.118;8.952;2022-11-25T03:26:58;100464.28;;;4.24;100.00
4586;BME280;2305;50.118;8.952;2022-11-25T03:29:29;100464.41;;;4.21;100.00
4586;BME280;2305;50.118;8.952;2022-11-25T03:32:01;100469.50;;;4.24;100.00
4586;BME280;2305;50.118;8.952;2022-11-25T03:34:37;100471.00;;;4.28;100.00
4586;BME280;2305;50.118;8.952;2022-11-25T03:37:10;100472.09;;;4.24;100.00
4586;BME280;2305;50.118;8.952;2022-11-25T03:39:43;100473.78;;;4.25;100.00
4586;BME280;2305;50.118;8.952;2022-11-25T03:42:14;100472.66;;;4.29;100.00
4586;BME280;2305;50.118;8.952;2022-11-25T03:44:46;100467.38;;;4.30;100.00
4586;BME280;2305;50.118;8.952;2022-11-25T03:47:14;100469.91;;;4.32;100.00
4586;BME280;2305;50.118;8.952;2022-11-25T03:49:46;100464.63;;;4.33;100.00
4586;BME280;2305;50.118;8.952;2022-11-25T03:52:14;100453.16;;;4.36;100.00
4586;BME280;2305;50.118;8.952;2022-11-25T03:54:44;100459.91;;;4.40;100.00
4586;BME280;2305;50.118;8.952;2022-11-25T03:57:20;100457.22;;;4.41;100.00
4586;BME280;2305;50.118;8.952;2022-11-25T03:59:50;100459.72;;;4.43;100.00
4586;BME280;2305;50.118;8.952;2022-11-25T04:02:23;100453.44;;;4.47;100.00
4586;BME280;2305;50.118;8.952;2022-11-25T04:04:54;100456.03;;;4.47;100.00
4586;BME280;2305;50.118;8.952;2022-11-25T04:07:22;100454.19;;;4.49;100.00
4586;BME280;2305;50.118;8.952;2022-11-25T04:09:52;100455.78;;;4.51;100.00
4586;BME280;2305;50.118;8.952;2022-11-25T04:12:27;100453.44;;;4.47;100.00
4586;BME280;2305;50.118;8.952;2022-11-25T04:15:29;100454.19;;;4.49;100.00
4586;BME280;2305;50.118;8.952;2022-11-25T04:17:58;100458.41;;;4.51;100.00
4586;BME280;2305;50.118;8.952;2022-11-25T04:20:27;100453.09;;;4.53;100.00
4586;BME280;2305;50.118;8.952;2022-11-25T04:23:02;100452.16;;;4.54;100.00
4586;BME280;2305;50.118;8.952;2022-11-25T04:25:35;100458.88;;;4.58;100.00
4586;BME280;2305;50.118;8.952;2022-11-25T04:28:12;100457.22;;;4.57;100.00
4586;BME280;2305;50.118;8.952;2022-11-25T04:30:41;100460.59;;;4.59;100.00
4586;BME280;2305;50.118;8.952;2022-11-25T04:33:13;100460.22;;;4.65;100.00
4586;BME280;2305;50.118;8.952;2022-11-25T04:35:43;100466.22;;;4.67;100.00
4586;BME280;2305;50.118;8.952;2022-11-25T04:38:13;100462.63;;;4.69;100.00
4586;BME280;2305;50.118;8.952;2022-11-25T04:40:42;100461.75;;;4.69;100.00
4586;BME280;2305;50.118;8.952;2022-11-25T04:43:20;100465.13;;;4.71;100.00
4586;BME280;2305;50.118;8.952;2022-11-25T04:45:55;100469.34;;;4.73;100.00
4586;BME280;2305;50.118;8.952;2022-11-25T04:48:41;100464.03;;;4.75;100.00
4586;BME280;2305;50.118;8.952;2022-11-25T04:51:14;100459.56;;;4.77;100.00
4586;BME280;2305;50.118;8.952;2022-11-25T04:53:50;100462.25;;;4.75;100.00
4586;BME280;2305;50.118;8.952;2022-11-25T04:56:24;100463.97;;;4.76;100.00
4586;BME280;2305;50.118;8.952;2022-11-25T04:58:55;100463.09;;;4.76;100.00
4586;BME280;2305;50.118;8.952;2022-11-25T05:01:48;100461.16;;;4.79;100.00
4586;BME280;2305;50.118;8.952;2022-11-25T05:04:23;100457.47;;;4.83;100.00
4586;BME280;2305;50.118;8.952;2022-11-25T05:06:53;100450.53;;;4.82;100.00
4586;BME280;2305;50.118;8.952;2022-11-25T05:09:26;100451.22;;;4.86;100.00
4586;BME280;2305;50.118;8.952;2022-11-25T05:12:07;100447.78;;;4.85;100.00
4586;BME280;2305;50.118;8.952;2022-11-25T05:14:38;100444.22;;;4.86;100.00
4586;BME280;2305;50.118;8.952;2022-11-25T05:17:09;100444.31;;;4.85;100.00
4586;BME280;2305;50.118;8.952;2022-11-25T05:19:41;100439.28;;;4.82;100.00
4586;BME280;2305;50.118;8.952;2022-11-25T05:22:12;100440.22;;;4.81;100.00
4586;BME280;2305;50.118;8.952;2022-11-25T05:24:42;100440.03;;;4.84;100.00
4586;BME280;2305;50.118;8.952;2022-11-25T05:27:13;100439.28;;;4.82;100.00
4586;BME280;2305;50.118;8.952;2022-11-25T05:29:45;100437.75;;;4.78;100.00
4586;BME280;2305;50.118;8.952;2022-11-25T05:32:22;100440.38;;;4.78;100.00
4586;BME280;2305;50.118;8.952;2022-11-25T05:34:52;100439.44;;;4.79;100.00
4586;BME280;2305;50.118;8.952;2022-11-25T05:37:23;100443.22;;;4.73;100.00
4586;BME280;2305;50.118;8.952;2022-11-25T05:40:01;100454.53;;;4.74;100.00
4586;BME280;2305;50.118;8.952;2022-11-25T05:42:44;100453.00;;;4.70;100.00
4586;BME280;2305;50.118;8.952;2022-11-25T05:45:17;100443.50;;;4.69;100.00
4586;BME280;2305;50.118;8.952;2022-11-25T05:47:46;100453.00;;;4.70;100.00
4586;BME280;2305;50.118;8.952;2022-11-25T05:50:21;100457.22;;;4.72;100.00
4586;BME280;2305;50.118;8.952;2022-11-25T05:53:02;100460.69;;;4.73;100.00
4586;BME280;2305;50.118;8.952;2022-11-25T05:55:34;100459.63;;;4.75;100.00
4586;BME280;2305;50.118;8.952;2022-11-25T05:58:09;100455.88;;;4.81;100.00
4586;BME280;2305;50.118;8.952;2022-11-25T06:00:47;100464.09;;;4.89;100.00
4586;BME280;2305;50.118;8.952;2022-11-25T06:03:16;100461.22;;;4.93;100.00
4586;BME280;2305;50.118;8.952;2022-11-25T06:05:45;100458.34;;;4.98;100.00
4586;BME280;2305;50.118;8.952;2022-11-25T06:08:14;100462.50;;;5.02;100.00
4586;BME280;2305;50.118;8.952;2022-11-25T06:10:45;100460.56;;;5.05;100.00
4586;BME280;2305;50.118;8.952;2022-11-25T06:13:18;100469.22;;;5.06;100.00
4586;BME280;2305;50.118;8.952;2022-11-25T06:15:47;100455.31;;;5.05;100.00
4586;BME280;2305;50.118;8.952;2022-11-25T06:18:17;100470.66;;;5.11;100.00
4586;BME280;2305;50.118;8.952;2022-11-25T06:20:55;100471.13;;;5.18;100.00
4586;BME280;2305;50.118;8.952;2022-11-25T06:23:25;100473.47;;;5.22;100.00
4586;BME280;2305;50.118;8.952;2022-11-25T06:25:54;100483.84;;;5.24;100.00
4586;BME280;2305;50.118;8.952;2022-11-25T06:28:24;100481.97;;;5.26;100.00
4586;BME280;2305;50.118;8.952;2022-11-25T06:31:03;100478.50;;;5.25;100.00
4586;BME280;2305;50.118;8.952;2022-11-25T06:33:36;100487.78;;;5.31;100.00
4586;BME280;2305;50.118;8.952;2022-11-25T06:36:08;100494.50;;;5.35;100.00
4586;BME280;2305;50.118;8.952;2022-11-25T06:38:42;100500.31;;;5.40;100.00
4586;BME280;2305;50.118;8.952;2022-11-25T06:41:11;100509.81;;;5.41;100.00
4586;BME280;2305;50.118;8.952;2022-11-25T06:43:41;100508.63;;;5.46;100.00
4586;BME280;2305;50.118;8.952;2022-11-25T06:46:12;100507.25;;;5.55;100.00
4586;BME280;2305;50.118;8.952;2022-11-25T06:48:47;100512.50;;;5.55;100.00
4586;BME280;2305;50.118;8.952;2022-11-25T06:51:15;100515.84;;;5.57;100.00
4586;BME280;2305;50.118;8.952;2022-11-25T06:53:45;100519.97;;;5.61;100.00
4586;BME280;2305;50.118;8.952;2022-11-25T06:56:16;100522.78;;;5.58;100.00
4586;BME280;2305;50.118;8.952;2022-11-25T06:58:47;100522.78;;;5.58;100.00
4586;BME280;2305;50.118;8.952;2022-11-25T07:01:21;100537.41;;;5.60;100.00
4586;BME280;2305;50.118;8.952;2022-11-25T07:03:52;100533.63;;;5.66;100.00
4586;BME280;2305;50.118;8.952;2022-11-25T07:06:22;100525.78;;;5.66;100.00
4586;BME280;2305;50.118;8.952;2022-11-25T07:08:51;100523.91;;;5.68;100.00
4586;BME280;2305;50.118;8.952;2022-11-25T07:11:25;100531.56;;;5.71;100.00
4586;BME280;2305;50.118;8.952;2022-11-25T07:13:58;100527.19;;;5.71;100.00
4586;BME280;2305;50.118;8.952;2022-11-25T07:16:29;100525.59;;;5.69;100.00
4586;BME280;2305;50.118;8.952;2022-11-25T07:19:01;100527.13;;;5.73;100.00
4586;BME280;2305;50.118;8.952;2022-11-25T07:21:30;100527.66;;;5.78;100.00
4586;BME280;2305;50.118;8.952;2022-11-25T07:24:01;100532.16;;;5.76;100.00
4586;BME280;2305;50.118;8.952;2022-11-25T07:26:34;100551.88;;;5.81;100.00
4586;BME280;2305;50.118;8.952;2022-11-25T07:29:06;100547.03;;;5.89;100.00
4586;BME280;2305;50.118;8.952;2022-11-25T07:31:56;100554.53;;;5.95;100.00
4586;BME280;2305;50.118;8.952;2022-11-25T07:34:26;100553.25;;;6.02;100.00
4586;BME280;2305;50.118;8.952;2022-11-25T07:36:59;100551.41;;;6.04;100.00
4586;BME280;2305;50.118;8.952;2022-11-25T07:39:28;100546.06;;;6.06;100.00
4586;BME280;2305;50.118;8.952;2022-11-25T07:41:57;100558.03;;;6.10;100.00
4586;BME280;2305;50.118;8.952;2022-11-25T07:44:30;100556.00;;;6.15;100.00
4586;BME280;2305;50.118;8.952;2022-11-25T07:47:12;100547.00;;;6.19;100.00
4586;BME280;2305;50.118;8.952;2022-11-25T07:49:41;100552.81;;;6.24;100.00
4586;BME280;2305;50.118;8.952;2022-11-25T07:52:10;100554.94;;;6.31;100.00
4586;BME280;2305;50.118;8.952;2022-11-25T07:54:40;100563.94;;;6.41;100.00
4586;BME280;2305;50.118;8.952;2022-11-25T07:57:13;100569.56;;;6.49;100.00
4586;BME280;2305;50.118;8.952;2022-11-25T07:59:45;100564.88;;;6.54;100.00
4586;BME280;2305;50.118;8.952;2022-11-25T08:02:17;100556.56;;;6.62;100.00
4586;BME280;2305;50.118;8.952;2022-11-25T08:04:45;100564.97;;;6.67;100.00
4586;BME280;2305;50.118;8.952;2022-11-25T08:07:16;100563.66;;;6.74;100.00
4586;BME280;2305;50.118;8.952;2022-11-25T08:09:44;100556.38;;;6.79;100.00
4586;BME280;2305;50.118;8.952;2022-11-25T08:12:20;100562.91;;;6.86;100.00
4586;BME280;2305;50.118;8.952;2022-11-25T08:14:48;100567.72;;;6.92;100.00
4586;BME280;2305;50.118;8.952;2022-11-25T08:17:21;100559.50;;;6.98;100.00
4586;BME280;2305;50.118;8.952;2022-11-25T08:19:51;100568.22;;;6.98;100.00
4586;BME280;2305;50.118;8.952;2022-11-25T08:22:19;100564.72;;;6.98;100.00
4586;BME280;2305;50.118;8.952;2022-11-25T08:24:47;100565.19;;;7.04;100.00
4586;BME280;2305;50.118;8.952;2022-11-25T08:27:15;100568.22;;;6.98;100.00
4586;BME280;2305;50.118;8.952;2022-11-25T08:29:48;100569.97;;;6.98;100.00
4586;BME280;2305;50.118;8.952;2022-11-25T08:32:15;100575.56;;;7.06;100.00
4586;BME280;2305;50.118;8.952;2022-11-25T08:34:45;100574.34;;;7.11;100.00
4586;BME280;2305;50.118;8.952;2022-11-25T08:37:15;100566.50;;;7.11;100.00
4586;BME280;2305;50.118;8.952;2022-11-25T08:39:44;100577.88;;;7.10;100.00
4586;BME280;2305;50.118;8.952;2022-11-25T08:42:20;100577.31;;;7.19;100.00
4586;BME280;2305;50.118;8.952;2022-11-25T08:44:53;100570.75;;;7.26;100.00
4586;BME280;2305;50.118;8.952;2022-11-25T08:47:23;100575.22;;;7.24;100.00
4586;BME280;2305;50.118;8.952;2022-11-25T08:49:54;100571.19;;;7.33;100.00
4586;BME280;2305;50.118;8.952;2022-11-25T08:52:23;100569.13;;;7.38;100.00
4586;BME280;2305;50.118;8.952;2022-11-25T08:54:52;100569.84;;;7.40;100.00
4586;BME280;2305;50.118;8.952;2022-11-25T08:57:26;100580.34;;;7.40;100.00
4586;BME280;2305;50.118;8.952;2022-11-25T08:59:54;100571.44;;;7.42;100.00
4586;BME280;2305;50.118;8.952;2022-11-25T09:02:22;100580.56;;;7.37;100.00
4586;BME280;2305;50.118;8.952;2022-11-25T09:04:51;100590.00;;;7.39;100.00
4586;BME280;2305;50.118;8.952;2022-11-25T09:07:22;100591.03;;;7.37;100.00
4586;BME280;2305;50.118;8.952;2022-11-25T09:09:56;100591.38;;;7.45;100.00
4586;BME280;2305;50.118;8.952;2022-11-25T09:12:27;100591.06;;;7.49;100.00
4586;BME280;2305;50.118;8.952;2022-11-25T09:14:58;100591.72;;;7.53;100.00
4586;BME280;2305;50.118;8.952;2022-11-25T09:17:28;100569.06;;;7.52;100.00
4586;BME280;2305;50.118;8.952;2022-11-25T09:20:00;100589.75;;;7.56;100.00
4586;BME280;2305;50.118;8.952;2022-11-25T09:22:32;100600.78;;;7.61;100.00
4586;BME280;2305;50.118;8.952;2022-11-25T09:25:03;100592.63;;;7.66;100.00
4586;BME280;2305;50.118;8.952;2022-11-25T09:27:31;100609.94;;;7.68;100.00
4586;BME280;2305;50.118;8.952;2022-11-25T09:30:03;100607.50;;;7.65;100.00
4586;BME280;2305;50.118;8.952;2022-11-25T09:32:33;100617.03;;;7.66;100.00
4586;BME280;2305;50.118;8.952;2022-11-25T09:35:05;100615.81;;;7.72;100.00
4586;BME280;2305;50.118;8.952;2022-11-25T09:37:35;100631.25;;;7.76;100.00
4586;BME280;2305;50.118;8.952;2022-11-25T09:40:06;100630.09;;;7.80;100.00
4586;BME280;2305;50.118;8.952;2022-11-25T09:42:49;100628.03;;;7.85;100.00
4586;BME280;2305;50.118;8.952;2022-11-25T09:45:46;100633.06;;;7.88;100.00
4586;BME280;2305;50.118;8.952;2022-11-25T09:48:47;100636.53;;;7.89;100.00
4586;BME280;2305;50.118;8.952;2022-11-25T09:51:28;100637.09;;;7.94;100.00
4586;BME280;2305;50.118;8.952;2022-11-25T09:54:08;100642.31;;;7.94;100.00
4586;BME280;2305;50.118;8.952;2022-11-25T09:56:48;100654.28;;;7.98;100.00
4586;BME280;2305;50.118;8.952;2022-11-25T09:59:20;100660.00;;;8.04;100.00
4586;BME280;2305;50.118;8.952;2022-11-25T10:01:54;100642.69;;;8.14;100.00
4586;BME280;2305;50.118;8.952;2022-11-25T10:04:29;100653.28;;;8.13;100.00
4586;BME280;2305;50.118;8.952;2022-11-25T10:07:03;100655.25;;;8.09;100.00
4586;BME280;2305;50.118;8.952;2022-11-25T10:09:34;100658.34;;;8.16;100.00
4586;BME280;2305;50.118;8.952;2022-11-25T10:12:05;100653.91;;;8.16;100.00
4586;BME280;2305;50.118;8.952;2022-11-25T10:14:45;100654.59;;;8.20;100.00
4586;BME280;2305;50.118;8.952;2022-11-25T10:17:19;100657.75;;;8.25;100.00
4586;BME280;2305;50.118;8.952;2022-11-25T10:19:56;100659.34;;;8.27;100.00
4586;BME280;2305;50.118;8.952;2022-11-25T10:22:31;100660.69;;;8.33;100.00
4586;BME280;2305;50.118;8.952;2022-11-25T10:25:14;100652.19;;;8.42;100.00
4586;BME280;2305;50.118;8.952;2022-11-25T10:27:48;100650.03;;;8.48;100.00
4586;BME280;2305;50.118;8.952;2022-11-25T10:30:22;100655.69;;;8.55;100.00
4586;BME280;2305;50.118;8.952;2022-11-25T10:33:01;100646.56;;;8.60;100.00
4586;BME280;2305;50.118;8.952;2022-11-25T10:35:37;100632.78;;;8.69;100.00
4586;BME280;2305;50.118;8.952;2022-11-25T10:38:12;100643.63;;;8.77;100.00
4586;BME280;2305;50.118;8.952;2022-11-25T10:40:49;100649.41;;;8.82;100.00
4586;BME280;2305;50.118;8.952;2022-11-25T10:43:19;100639.28;;;8.88;100.00
4586;BME280;2305;50.118;8.952;2022-11-25T10:46:07;100647.28;;;8.99;100.00
4586;BME280;2305;50.118;8.952;2022-11-25T10:48:54;100658.41;;;9.15;100.00
4586;BME280;2305;50.118;8.952;2022-11-25T10:51:35;100652.38;;;9.26;100.00
4586;BME280;2305;50.118;8.952;2022-11-25T10:54:15;100654.31;;;9.47;100.00
4586;BME280;2305;50.118;8.952;2022-11-25T10:56:56;100659.53;;;9.60;100.00
4586;BME280;2305;50.118;8.952;2022-11-25T10:59:27;100653.81;;;9.66;100.00
4586;BME280;2305;50.118;8.952;2022-11-25T11:02:16;100660.25;;;9.62;100.00
4586;BME280;2305;50.118;8.952;2022-11-25T11:04:52;100662.03;;;9.61;100.00
4586;BME280;2305;50.118;8.952;2022-11-25T11:07:22;100659.13;;;9.53;100.00
4586;BME280;2305;50.118;8.952;2022-11-25T11:10:16;100665.56;;;9.49;100.00
4586;BME280;2305;50.118;8.952;2022-11-25T11:12:56;100670.97;;;9.35;100.00
4586;BME280;2305;50.118;8.952;2022-11-25T11:15:26;100676.72;;;9.40;100.00
4586;BME280;2305;50.118;8.952;2022-11-25T11:17:56;100670.41;;;9.43;100.00
4586;BME280;2305;50.118;8.952;2022-11-25T11:20:29;100669.88;;;9.50;100.00
4586;BME280;2305;50.118;8.952;2022-11-25T11:23:01;100675.66;;;9.55;100.00
4586;BME280;2305;50.118;8.952;2022-11-25T11:25:36;100683.13;;;9.49;100.00
4586;BME280;2305;50.118;8.952;2022-11-25T11:28:27;100674.72;;;9.56;100.00
4586;BME280;2305;50.118;8.952;2022-11-25T11:30:59;100678.00;;;9.71;100.00
4586;BME280;2305;50.118;8.952;2022-11-25T11:33:32;100680.72;;;9.82;100.00
4586;BME280;2305;50.118;8.952;2022-11-25T11:36:11;100671.91;;;9.94;100.00
4586;BME280;2305;50.118;8.952;2022-11-25T11:38:49;100675.06;;;9.99;100.00
4586;BME280;2305;50.118;8.952;2022-11-25T11:41:31;100677.47;;;10.02;100.00
4586;BME280;2305;50.118;8.952;2022-11-25T11:44:16;100683.16;;;10.08;100.00
4586;BME280;2305;50.118;8.952;2022-11-25T11:46:58;100684.38;;;10.15;100.00
4586;BME280;2305;50.118;8.952;2022-11-25T11:49:49;100680.16;;;10.13;100.00
4586;BME280;2305;50.118;8.952;2022-11-25T11:52:30;100686.38;;;10.35;100.00
4586;BME280;2305;50.118;8.952;2022-11-25T11:55:19;100674.81;;;10.60;100.00
4586;BME280;2305;50.118;8.952;2022-11-25T11:57:58;100681.47;;;10.76;100.00
4586;BME280;2305;50.118;8.952;2022-11-25T12:00:37;100690.31;;;10.97;100.00
4586;BME280;2305;50.118;8.952;2022-11-25T12:03:12;100694.31;;;11.03;100.00
4586;BME280;2305;50.118;8.952;2022-11-25T12:05:43;100685.91;;;11.09;100.00
4586;BME280;2305;50.118;8.952;2022-11-25T12:08:18;100691.78;;;11.01;100.00
4586;BME280;2305;50.118;8.952;2022-11-25T12:10:52;100689.50;;;11.08;100.00
4586;BME280;2305;50.118;8.952;2022-11-25T12:13:26;100700.88;;;10.97;100.00
4586;BME280;2305;50.118;8.952;2022-11-25T12:16:04;100706.13;;;10.97;100.00
4586;BME280;2305;50.118;8.952;2022-11-25T12:18:43;100704.94;;;10.90;100.00
4586;BME280;2305;50.118;8.952;2022-11-25T12:21:26;100709.28;;;10.91;100.00
4586;BME280;2305;50.118;8.952;2022-11-25T12:24:12;100707.34;;;10.93;100.00
4586;BME280;2305;50.118;8.952;2022-11-25T12:26:53;100714.16;;;10.85;100.00
4586;BME280;2305;50.118;8.952;2022-11-25T12:29:30;100707.81;;;10.87;100.00
4586;BME280;2305;50.118;8.952;2022-11-25T12:32:40;100699.66;;;10.90;100.00
4586;BME280;2305;50.118;8.952;2022-11-25T12:35:19;100703.63;;;10.96;100.00
4586;BME280;2305;50.118;8.952;2022-11-25T12:38:00;100693.44;;;11.02;100.00
4586;BME280;2305;50.118;8.952;2022-11-25T12:40:32;100696.47;;;11.09;100.00
4586;BME280;2305;50.118;8.952;2022-11-25T12:43:16;100702.34;;;11.12;100.00
4586;BME280;2305;50.118;8.952;2022-11-25T12:45:50;100709.53;;;11.21;100.00
4586;BME280;2305;50.118;8.952;2022-11-25T12:48:24;100707.84;;;11.20;100.00
4586;BME280;2305;50.118;8.952;2022-11-25T12:50:59;100708.44;;;11.13;100.00
4586;BME280;2305;50.118;8.952;2022-11-25T12:53:38;100716.59;;;11.10;100.00
4586;BME280;2305;50.118;8.952;2022-11-25T12:56:17;100731.34;;;11.12;100.00
4586;BME280;2305;50.118;8.952;2022-11-25T12:59:37;100732.06;;;11.25;100.00
4586;BME280;2305;50.118;8.952;2022-11-25T13:02:34;100736.38;;;11.37;100.00
4586;BME280;2305;50.118;8.952;2022-11-25T13:05:37;100747.94;;;11.58;100.00
4586;BME280;2305;50.118;8.952;2022-11-25T13:08:20;100751.88;;;11.75;100.00
4586;BME280;2305;50.118;8.952;2022-11-25T13:11:03;100753.88;;;11.82;100.00
4586;BME280;2305;50.118;8.952;2022-11-25T13:13:44;100760.41;;;11.78;100.00
4586;BME280;2305;50.118;8.952;2022-11-25T13:16:17;100764.69;;;11.68;100.00
4586;BME280;2305;50.118;8.952;2022-11-25T13:18:48;100763.28;;;11.64;100.00
4586;BME280;2305;50.118;8.952;2022-11-25T13:21:20;100765.19;;;11.73;100.00
4586;BME280;2305;50.118;8.952;2022-11-25T13:23:51;100762.91;;;11.69;100.00
4586;BME280;2305;50.118;8.952;2022-11-25T13:26:37;100764.72;;;11.79;100.00
4586;BME280;2305;50.118;8.952;2022-11-25T13:32:34;100782.69;;;11.96;100.00
4586;BME280;2305;50.118;8.952;2022-11-25T13:35:45;100775.06;;;12.14;100.00
4586;BME280;2305;50.118;8.952;2022-11-25T13:41:41;100780.75;;;13.84;100.00
4586;BME280;2305;50.118;8.952;2022-11-25T13:44:18;100777.84;;;14.55;100.00
4586;BME280;2305;50.118;8.952;2022-11-25T13:46:49;100786.13;;;15.26;100.00
4586;BME280;2305;50.118;8.952;2022-11-25T13:49:23;100780.72;;;15.09;100.00
4586;BME280;2305;50.118;8.952;2022-11-25T13:51:54;100787.31;;;15.05;100.00
4586;BME280;2305;50.118;8.952;2022-11-25T13:54:30;100791.50;;;14.69;100.00